sensor_id;sensor_type;location;lat;lon;timestamp;P1;durP1;ratioP1;P2;durP2;ratioP2
64061;SDS011;50308;47.438;-1.528;2024-03-22T00:00:46;13.77;;;10.45;;
64061;SDS011;50308;47.438;-1.528;2024-03-22T00:03:12;12.52;;;9.80;;
64061;SDS011;50308;47.438;-1.528;2024-03-22T00:05:37;16.27;;;10.82;;
64061;SDS011;50308;47.438;-1.528;2024-03-22T00:08:03;16.27;;;11.00;;
64061;SDS011;50308;47.438;-1.528;2024-03-22T00:10:29;13.48;;;10.00;;
64061;SDS011;50308;47.438;-1.528;2024-03-22T00:12:55;12.85;;;9.88;;
64061;SDS011;50308;47.438;-1.528;2024-03-22T00:15:20;12.60;;;10.65;;
64061;SDS011;50308;47.438;-1.528;2024-03-22T00:17:46;14.90;;;11.00;;
64061;SDS011;50308;47.438;-1.528;2024-03-22T00:20:12;14.73;;;11.10;;
64061;SDS011;50308;47.438;-1.528;2024-03-22T00:22:37;13.35;;;10.88;;
64061;SDS011;50308;47.438;-1.528;2024-03-22T00:25:03;14.43;;;11.45;;
64061;SDS011;50308;47.438;-1.528;2024-03-22T00:27:31;13.82;;;10.40;;
64061;SDS011;50308;47.438;-1.528;2024-03-22T00:29:56;12.13;;;10.80;;
64061;SDS011;50308;47.438;-1.528;2024-03-22T00:32:22;15.48;;;11.38;;
64061;SDS011;50308;47.438;-1.528;2024-03-22T00:34:48;13.60;;;11.15;;
64061;SDS011;50308;47.438;-1.528;2024-03-22T00:37:13;13.82;;;11.63;;
64061;SDS011;50308;47.438;-1.528;2024-03-22T00:39:39;15.00;;;11.35;;
64061;SDS011;50308;47.438;-1.528;2024-03-22T00:42:04;15.18;;;12.00;;
64061;SDS011;50308;47.438;-1.528;2024-03-22T00:44:30;13.45;;;11.07;;
64061;SDS011;50308;47.438;-1.528;2024-03-22T00:46:56;15.13;;;11.68;;
64061;SDS011;50308;47.438;-1.528;2024-03-22T00:49:21;13.00;;;10.90;;
64061;SDS011;50308;47.438;-1.528;2024-03-22T00:51:47;15.00;;;10.98;;
64061;SDS011;50308;47.438;-1.528;2024-03-22T00:54:13;12.05;;;10.75;;
64061;SDS011;50308;47.438;-1.528;2024-03-22T00:56:39;17.38;;;11.30;;
64061;SDS011;50308;47.438;-1.528;2024-03-22T00:59:04;14.15;;;11.52;;
64061;SDS011;50308;47.438;-1.528;2024-03-22T01:01:30;15.00;;;11.38;;
64061;SDS011;50308;47.438;-1.528;2024-03-22T01:03:55;14.95;;;11.70;;
64061;SDS011;50308;47.438;-1.528;2024-03-22T01:06:21;13.90;;;10.93;;
64061;SDS011;50308;47.438;-1.528;2024-03-22T01:08:50;14.85;;;11.30;;
64061;SDS011;50308;47.438;-1.528;2024-03-22T01:11:16;14.98;;;11.68;;
64061;SDS011;50308;47.438;-1.528;2024-03-22T01:13:42;13.65;;;11.35;;
64061;SDS011;50308;47.438;-1.528;2024-03-22T01:16:09;14.63;;;11.32;;
64061;SDS011;50308;47.438;-1.528;2024-03-22T01:18:35;14.10;;;11.88;;
64061;SDS011;50308;47.438;-1.528;2024-03-22T01:21:01;15.38;;;12.63;;
64061;SDS011;50308;47.438;-1.528;2024-03-22T01:23:27;17.40;;;11.88;;
64061;SDS011;50308;47.438;-1.528;2024-03-22T01:25:53;15.82;;;12.25;;
64061;SDS011;50308;47.438;-1.528;2024-03-22T01:28:18;11.90;;;10.55;;
64061;SDS011;50308;47.438;-1.528;2024-03-22T01:30:44;13.65;;;11.02;;
64061;SDS011;50308;47.438;-1.528;2024-03-22T01:33:10;15.68;;;11.85;;
64061;SDS011;50308;47.438;-1.528;2024-03-22T01:35:35;15.57;;;12.18;;
64061;SDS011;50308;47.438;-1.528;2024-03-22T01:38:01;15.15;;;11.13;;
64061;SDS011;50308;47.438;-1.528;2024-03-22T01:40:27;13.85;;;10.77;;
64061;SDS011;50308;47.438;-1.528;2024-03-22T01:42:53;13.48;;;10.50;;
64061;SDS011;50308;47.438;-1.528;2024-03-22T01:45:20;14.45;;;11.68;;
64061;SDS011;50308;47.438;-1.528;2024-03-22T01:47:49;15.40;;;11.75;;
64061;SDS011;50308;47.438;-1.528;2024-03-22T01:50:21;15.65;;;11.15;;
64061;SDS011;50308;47.438;-1.528;2024-03-22T01:52:47;14.40;;;11.30;;
64061;SDS011;50308;47.438;-1.528;2024-03-22T01:55:13;12.93;;;10.73;;
64061;SDS011;50308;47.438;-1.528;2024-03-22T01:57:39;13.88;;;10.93;;
64061;SDS011;50308;47.438;-1.528;2024-03-22T02:00:05;13.07;;;10.48;;
64061;SDS011;50308;47.438;-1.528;2024-03-22T02:02:33;13.50;;;10.57;;
64061;SDS011;50308;47.438;-1.528;2024-03-22T02:04:59;10.98;;;9.63;;
64061;SDS011;50308;47.438;-1.528;2024-03-22T02:07:36;12.48;;;10.25;;
64061;SDS011;50308;47.438;-1.528;2024-03-22T02:10:01;11.82;;;10.25;;
64061;SDS011;50308;47.438;-1.528;2024-03-22T02:12:27;14.07;;;9.80;;
64061;SDS011;50308;47.438;-1.528;2024-03-22T02:14:53;12.30;;;9.77;;
64061;SDS011;50308;47.438;-1.528;2024-03-22T02:17:22;11.45;;;9.07;;
64061;SDS011;50308;47.438;-1.528;2024-03-22T02:19:48;10.73;;;9.27;;
64061;SDS011;50308;47.438;-1.528;2024-03-22T02:22:13;12.30;;;9.50;;
64061;SDS011;50308;47.438;-1.528;2024-03-22T02:24:39;11.50;;;9.20;;
64061;SDS011;50308;47.438;-1.528;2024-03-22T02:27:04;10.65;;;9.20;;
64061;SDS011;50308;47.438;-1.528;2024-03-22T02:29:30;11.50;;;9.05;;
64061;SDS011;50308;47.438;-1.528;2024-03-22T02:31:56;10.90;;;9.38;;
64061;SDS011;50308;47.438;-1.528;2024-03-22T02:34:23;9.15;;;8.15;;
64061;SDS011;50308;47.438;-1.528;2024-03-22T02:36:49;10.93;;;9.05;;
64061;SDS011;50308;47.438;-1.528;2024-03-22T02:39:14;10.13;;;8.55;;
64061;SDS011;50308;47.438;-1.528;2024-03-22T02:41:40;9.93;;;8.20;;
64061;SDS011;50308;47.438;-1.528;2024-03-22T02:44:05;10.52;;;9.13;;
64061;SDS011;50308;47.438;-1.528;2024-03-22T02:46:31;9.50;;;8.35;;
64061;SDS011;50308;47.438;-1.528;2024-03-22T02:48:57;9.95;;;8.63;;
64061;SDS011;50308;47.438;-1.528;2024-03-22T02:51:23;11.05;;;8.43;;
64061;SDS011;50308;47.438;-1.528;2024-03-22T02:53:48;11.23;;;9.30;;
64061;SDS011;50308;47.438;-1.528;2024-03-22T02:56:14;10.25;;;8.77;;
64061;SDS011;50308;47.438;-1.528;2024-03-22T02:58:40;10.40;;;8.85;;
64061;SDS011;50308;47.438;-1.528;2024-03-22T03:01:06;10.10;;;8.32;;
64061;SDS011;50308;47.438;-1.528;2024-03-22T03:03:31;10.20;;;8.77;;
64061;SDS011;50308;47.438;-1.528;2024-03-22T03:05:57;9.77;;;8.25;;
64061;SDS011;50308;47.438;-1.528;2024-03-22T03:08:23;10.25;;;8.35;;
64061;SDS011;50308;47.438;-1.528;2024-03-22T03:10:48;10.50;;;8.45;;
64061;SDS011;50308;47.438;-1.528;2024-03-22T03:13:14;8.60;;;7.57;;
64061;SDS011;50308;47.438;-1.528;2024-03-22T03:15:39;9.95;;;7.78;;
64061;SDS011;50308;47.438;-1.528;2024-03-22T03:18:05;9.57;;;7.90;;
64061;SDS011;50308;47.438;-1.528;2024-03-22T03:20:31;9.60;;;8.38;;
64061;SDS011;50308;47.438;-1.528;2024-03-22T03:22:56;8.70;;;7.50;;
64061;SDS011;50308;47.438;-1.528;2024-03-22T03:25:24;11.20;;;8.65;;
64061;SDS011;50308;47.438;-1.528;2024-03-22T03:27:53;10.15;;;7.80;;
64061;SDS011;50308;47.438;-1.528;2024-03-22T03:30:19;10.23;;;8.27;;
64061;SDS011;50308;47.438;-1.528;2024-03-22T03:32:44;8.55;;;7.70;;
64061;SDS011;50308;47.438;-1.528;2024-03-22T03:35:10;10.20;;;8.27;;
64061;SDS011;50308;47.438;-1.528;2024-03-22T03:37:35;9.05;;;7.97;;
64061;SDS011;50308;47.438;-1.528;2024-03-22T03:40:01;10.00;;;8.05;;
64061;SDS011;50308;47.438;-1.528;2024-03-22T03:42:27;7.75;;;6.72;;
64061;SDS011;50308;47.438;-1.528;2024-03-22T03:44:52;8.60;;;7.32;;
64061;SDS011;50308;47.438;-1.528;2024-03-22T03:47:18;9.02;;;7.45;;
64061;SDS011;50308;47.438;-1.528;2024-03-22T03:49:47;8.73;;;7.13;;
64061;SDS011;50308;47.438;-1.528;2024-03-22T03:52:13;9.43;;;7.97;;
64061;SDS011;50308;47.438;-1.528;2024-03-22T03:54:39;8.85;;;7.28;;
64061;SDS011;50308;47.438;-1.528;2024-03-22T03:57:05;8.77;;;7.88;;
64061;SDS011;50308;47.438;-1.528;2024-03-22T03:59:31;8.38;;;7.47;;
64061;SDS011;50308;47.438;-1.528;2024-03-22T04:01:56;7.50;;;6.72;;
64061;SDS011;50308;47.438;-1.528;2024-03-22T04:04:22;8.60;;;7.47;;
64061;SDS011;50308;47.438;-1.528;2024-03-22T04:06:47;8.48;;;7.43;;
64061;SDS011;50308;47.438;-1.528;2024-03-22T04:09:13;9.13;;;7.53;;
64061;SDS011;50308;47.438;-1.528;2024-03-22T04:11:39;8.68;;;7.30;;
64061;SDS011;50308;47.438;-1.528;2024-03-22T04:14:05;8.57;;;7.30;;
64061;SDS011;50308;47.438;-1.528;2024-03-22T04:16:30;8.35;;;7.10;;
64061;SDS011;50308;47.438;-1.528;2024-03-22T04:18:56;9.02;;;7.38;;
64061;SDS011;50308;47.438;-1.528;2024-03-22T04:21:22;8.68;;;7.53;;
64061;SDS011;50308;47.438;-1.528;2024-03-22T04:23:48;8.10;;;6.95;;
64061;SDS011;50308;47.438;-1.528;2024-03-22T04:26:14;8.05;;;6.68;;
64061;SDS011;50308;47.438;-1.528;2024-03-22T04:28:40;9.23;;;7.70;;
64061;SDS011;50308;47.438;-1.528;2024-03-22T04:31:09;7.80;;;6.88;;
64061;SDS011;50308;47.438;-1.528;2024-03-22T04:33:35;7.30;;;6.47;;
64061;SDS011;50308;47.438;-1.528;2024-03-22T04:36:01;7.97;;;6.88;;
64061;SDS011;50308;47.438;-1.528;2024-03-22T04:38:28;8.00;;;6.85;;
64061;SDS011;50308;47.438;-1.528;2024-03-22T04:40:54;7.93;;;7.13;;
64061;SDS011;50308;47.438;-1.528;2024-03-22T04:43:21;8.18;;;7.10;;
64061;SDS011;50308;47.438;-1.528;2024-03-22T04:45:50;8.40;;;6.78;;
64061;SDS011;50308;47.438;-1.528;2024-03-22T04:48:17;7.13;;;6.43;;
64061;SDS011;50308;47.438;-1.528;2024-03-22T04:50:47;7.55;;;6.75;;
64061;SDS011;50308;47.438;-1.528;2024-03-22T04:53:16;8.13;;;6.53;;
64061;SDS011;50308;47.438;-1.528;2024-03-22T04:55:43;7.40;;;6.43;;
64061;SDS011;50308;47.438;-1.528;2024-03-22T04:58:15;6.38;;;5.78;;
64061;SDS011;50308;47.438;-1.528;2024-03-22T05:00:47;6.57;;;5.97;;
64061;SDS011;50308;47.438;-1.528;2024-03-22T05:03:14;7.00;;;6.25;;
64061;SDS011;50308;47.438;-1.528;2024-03-22T05:05:41;7.05;;;6.20;;
64061;SDS011;50308;47.438;-1.528;2024-03-22T05:08:08;7.05;;;6.38;;
64061;SDS011;50308;47.438;-1.528;2024-03-22T05:10:34;6.63;;;5.85;;
64061;SDS011;50308;47.438;-1.528;2024-03-22T05:13:00;6.55;;;5.85;;
64061;SDS011;50308;47.438;-1.528;2024-03-22T05:15:25;6.90;;;6.05;;
64061;SDS011;50308;47.438;-1.528;2024-03-22T05:17:52;6.75;;;6.10;;
64061;SDS011;50308;47.438;-1.528;2024-03-22T05:20:18;6.85;;;6.15;;
64061;SDS011;50308;47.438;-1.528;2024-03-22T05:22:44;7.38;;;6.20;;
64061;SDS011;50308;47.438;-1.528;2024-03-22T05:25:10;7.07;;;6.38;;
64061;SDS011;50308;47.438;-1.528;2024-03-22T05:27:37;7.15;;;6.22;;
64061;SDS011;50308;47.438;-1.528;2024-03-22T05:30:03;7.30;;;5.82;;
64061;SDS011;50308;47.438;-1.528;2024-03-22T05:32:29;6.45;;;5.85;;
64061;SDS011;50308;47.438;-1.528;2024-03-22T05:34:55;6.97;;;6.22;;
64061;SDS011;50308;47.438;-1.528;2024-03-22T05:37:21;6.85;;;6.15;;
64061;SDS011;50308;47.438;-1.528;2024-03-22T05:39:47;6.80;;;5.95;;
64061;SDS011;50308;47.438;-1.528;2024-03-22T05:42:12;7.32;;;6.32;;
64061;SDS011;50308;47.438;-1.528;2024-03-22T05:44:38;6.68;;;5.97;;
64061;SDS011;50308;47.438;-1.528;2024-03-22T05:47:04;6.20;;;5.28;;
64061;SDS011;50308;47.438;-1.528;2024-03-22T05:49:30;5.95;;;4.70;;
64061;SDS011;50308;47.438;-1.528;2024-03-22T05:51:55;5.97;;;4.80;;
64061;SDS011;50308;47.438;-1.528;2024-03-22T05:54:21;18.33;;;4.53;;
64061;SDS011;50308;47.438;-1.528;2024-03-22T05:56:47;4.60;;;4.15;;
64061;SDS011;50308;47.438;-1.528;2024-03-22T05:59:12;5.00;;;4.10;;
64061;SDS011;50308;47.438;-1.528;2024-03-22T06:01:38;4.28;;;3.85;;
64061;SDS011;50308;47.438;-1.528;2024-03-22T06:04:06;4.18;;;3.78;;
64061;SDS011;50308;47.438;-1.528;2024-03-22T06:06:33;4.50;;;4.05;;
64061;SDS011;50308;47.438;-1.528;2024-03-22T06:08:59;3.50;;;3.20;;
64061;SDS011;50308;47.438;-1.528;2024-03-22T06:11:28;4.03;;;3.53;;
64061;SDS011;50308;47.438;-1.528;2024-03-22T06:13:57;4.90;;;3.80;;
64061;SDS011;50308;47.438;-1.528;2024-03-22T06:16:22;4.30;;;3.90;;
64061;SDS011;50308;47.438;-1.528;2024-03-22T06:18:48;4.65;;;4.13;;
64061;SDS011;50308;47.438;-1.528;2024-03-22T06:21:14;4.88;;;4.32;;
64061;SDS011;50308;47.438;-1.528;2024-03-22T06:23:39;4.95;;;4.30;;
64061;SDS011;50308;47.438;-1.528;2024-03-22T06:26:06;5.47;;;4.68;;
64061;SDS011;50308;47.438;-1.528;2024-03-22T06:28:32;5.65;;;4.80;;
64061;SDS011;50308;47.438;-1.528;2024-03-22T06:30:58;5.15;;;4.47;;
64061;SDS011;50308;47.438;-1.528;2024-03-22T06:33:23;4.90;;;4.40;;
64061;SDS011;50308;47.438;-1.528;2024-03-22T06:35:49;5.22;;;4.43;;
64061;SDS011;50308;47.438;-1.528;2024-03-22T06:38:14;5.47;;;4.53;;
64061;SDS011;50308;47.438;-1.528;2024-03-22T06:40:40;4.70;;;4.20;;
64061;SDS011;50308;47.438;-1.528;2024-03-22T06:43:06;4.60;;;4.20;;
64061;SDS011;50308;47.438;-1.528;2024-03-22T06:45:32;5.80;;;4.70;;
64061;SDS011;50308;47.438;-1.528;2024-03-22T06:47:57;4.78;;;4.28;;
64061;SDS011;50308;47.438;-1.528;2024-03-22T06:50:23;5.68;;;4.75;;
64061;SDS011;50308;47.438;-1.528;2024-03-22T06:52:51;4.93;;;4.15;;
64061;SDS011;50308;47.438;-1.528;2024-03-22T06:55:18;5.25;;;4.70;;
64061;SDS011;50308;47.438;-1.528;2024-03-22T06:57:48;4.30;;;3.65;;
64061;SDS011;50308;47.438;-1.528;2024-03-22T07:00:14;4.53;;;4.13;;
64061;SDS011;50308;47.438;-1.528;2024-03-22T07:02:41;4.43;;;4.03;;
64061;SDS011;50308;47.438;-1.528;2024-03-22T07:05:07;4.40;;;3.90;;
64061;SDS011;50308;47.438;-1.528;2024-03-22T07:07:34;4.72;;;3.90;;
64061;SDS011;50308;47.438;-1.528;2024-03-22T07:10:00;6.30;;;3.95;;
64061;SDS011;50308;47.438;-1.528;2024-03-22T07:12:26;4.22;;;3.75;;
64061;SDS011;50308;47.438;-1.528;2024-03-22T07:14:52;5.03;;;4.43;;
64061;SDS011;50308;47.438;-1.528;2024-03-22T07:17:18;4.70;;;4.18;;
64061;SDS011;50308;47.438;-1.528;2024-03-22T07:19:48;4.53;;;3.72;;
64061;SDS011;50308;47.438;-1.528;2024-03-22T07:22:16;4.28;;;3.83;;
64061;SDS011;50308;47.438;-1.528;2024-03-22T07:24:41;4.20;;;3.70;;
64061;SDS011;50308;47.438;-1.528;2024-03-22T07:27:07;9.70;;;7.80;;
64061;SDS011;50308;47.438;-1.528;2024-03-22T07:29:33;5.88;;;4.30;;
64061;SDS011;50308;47.438;-1.528;2024-03-22T07:31:58;5.68;;;4.40;;
64061;SDS011;50308;47.438;-1.528;2024-03-22T07:34:24;4.75;;;4.05;;
64061;SDS011;50308;47.438;-1.528;2024-03-22T07:36:50;6.28;;;4.82;;
64061;SDS011;50308;47.438;-1.528;2024-03-22T07:39:15;6.18;;;5.50;;
64061;SDS011;50308;47.438;-1.528;2024-03-22T07:41:41;5.53;;;4.35;;
64061;SDS011;50308;47.438;-1.528;2024-03-22T07:44:07;4.47;;;4.07;;
64061;SDS011;50308;47.438;-1.528;2024-03-22T07:46:32;4.38;;;3.97;;
64061;SDS011;50308;47.438;-1.528;2024-03-22T07:48:58;4.43;;;3.78;;
64061;SDS011;50308;47.438;-1.528;2024-03-22T07:51:24;4.38;;;3.80;;
64061;SDS011;50308;47.438;-1.528;2024-03-22T07:53:50;3.88;;;3.42;;
64061;SDS011;50308;47.438;-1.528;2024-03-22T07:56:17;3.63;;;3.10;;
64061;SDS011;50308;47.438;-1.528;2024-03-22T07:58:42;4.10;;;3.70;;
64061;SDS011;50308;47.438;-1.528;2024-03-22T08:01:08;4.20;;;3.30;;
64061;SDS011;50308;47.438;-1.528;2024-03-22T08:03:34;3.10;;;2.80;;
64061;SDS011;50308;47.438;-1.528;2024-03-22T08:06:00;3.55;;;3.13;;
64061;SDS011;50308;47.438;-1.528;2024-03-22T08:08:25;3.38;;;3.08;;
64061;SDS011;50308;47.438;-1.528;2024-03-22T08:10:51;3.65;;;3.20;;
64061;SDS011;50308;47.438;-1.528;2024-03-22T08:13:16;3.97;;;3.08;;
64061;SDS011;50308;47.438;-1.528;2024-03-22T08:15:42;4.00;;;3.40;;
64061;SDS011;50308;47.438;-1.528;2024-03-22T08:18:10;4.30;;;3.05;;
64061;SDS011;50308;47.438;-1.528;2024-03-22T08:20:36;3.85;;;3.20;;
64061;SDS011;50308;47.438;-1.528;2024-03-22T08:23:04;3.50;;;3.08;;
64061;SDS011;50308;47.438;-1.528;2024-03-22T08:25:30;4.60;;;3.03;;
64061;SDS011;50308;47.438;-1.528;2024-03-22T08:27:55;3.78;;;3.15;;
64061;SDS011;50308;47.438;-1.528;2024-03-22T08:30:21;3.33;;;2.92;;
64061;SDS011;50308;47.438;-1.528;2024-03-22T08:32:47;3.35;;;2.90;;
64061;SDS011;50308;47.438;-1.528;2024-03-22T08:35:13;4.55;;;3.30;;
64061;SDS011;50308;47.438;-1.528;2024-03-22T08:37:39;3.92;;;3.08;;
64061;SDS011;50308;47.438;-1.528;2024-03-22T08:40:05;4.47;;;3.42;;
64061;SDS011;50308;47.438;-1.528;2024-03-22T08:42:31;3.85;;;3.20;;
64061;SDS011;50308;47.438;-1.528;2024-03-22T08:44:57;4.18;;;3.63;;
64061;SDS011;50308;47.438;-1.528;2024-03-22T08:47:23;6.50;;;5.43;;
64061;SDS011;50308;47.438;-1.528;2024-03-22T08:49:48;3.72;;;3.40;;
64061;SDS011;50308;47.438;-1.528;2024-03-22T08:52:14;3.47;;;3.10;;
64061;SDS011;50308;47.438;-1.528;2024-03-22T08:54:40;4.78;;;3.75;;
64061;SDS011;50308;47.438;-1.528;2024-03-22T08:57:06;4.28;;;3.67;;
64061;SDS011;50308;47.438;-1.528;2024-03-22T08:59:31;6.13;;;3.83;;
64061;SDS011;50308;47.438;-1.528;2024-03-22T09:01:57;4.07;;;3.63;;
64061;SDS011;50308;47.438;-1.528;2024-03-22T09:04:24;4.07;;;3.47;;
64061;SDS011;50308;47.438;-1.528;2024-03-22T09:06:50;4.88;;;3.75;;
64061;SDS011;50308;47.438;-1.528;2024-03-22T09:09:16;3.95;;;3.42;;
64061;SDS011;50308;47.438;-1.528;2024-03-22T09:11:42;4.53;;;3.60;;
64061;SDS011;50308;47.438;-1.528;2024-03-22T09:14:07;4.55;;;3.90;;
64061;SDS011;50308;47.438;-1.528;2024-03-22T09:16:33;4.57;;;3.80;;
64061;SDS011;50308;47.438;-1.528;2024-03-22T09:18:59;4.55;;;3.75;;
64061;SDS011;50308;47.438;-1.528;2024-03-22T09:21:25;6.43;;;3.50;;
64061;SDS011;50308;47.438;-1.528;2024-03-22T09:23:50;5.10;;;3.72;;
64061;SDS011;50308;47.438;-1.528;2024-03-22T09:26:16;6.45;;;3.75;;
64061;SDS011;50308;47.438;-1.528;2024-03-22T09:28:41;4.88;;;4.20;;
64061;SDS011;50308;47.438;-1.528;2024-03-22T09:31:07;6.47;;;4.15;;
64061;SDS011;50308;47.438;-1.528;2024-03-22T09:33:33;4.68;;;3.75;;
64061;SDS011;50308;47.438;-1.528;2024-03-22T09:35:59;5.00;;;4.00;;
64061;SDS011;50308;47.438;-1.528;2024-03-22T09:38:25;5.25;;;3.92;;
64061;SDS011;50308;47.438;-1.528;2024-03-22T09:40:51;5.75;;;4.28;;
64061;SDS011;50308;47.438;-1.528;2024-03-22T09:43:19;5.55;;;4.90;;
64061;SDS011;50308;47.438;-1.528;2024-03-22T09:45:46;6.57;;;4.78;;
64061;SDS011;50308;47.438;-1.528;2024-03-22T09:48:18;5.15;;;4.65;;
64061;SDS011;50308;47.438;-1.528;2024-03-22T09:50:45;5.15;;;4.38;;
64061;SDS011;50308;47.438;-1.528;2024-03-22T09:53:18;6.43;;;4.60;;
64061;SDS011;50308;47.438;-1.528;2024-03-22T09:55:46;6.10;;;5.20;;
64061;SDS011;50308;47.438;-1.528;2024-03-22T09:58:13;6.40;;;4.63;;
64061;SDS011;50308;47.438;-1.528;2024-03-22T10:00:39;6.65;;;5.05;;
64061;SDS011;50308;47.438;-1.528;2024-03-22T10:03:05;6.15;;;4.93;;
64061;SDS011;50308;47.438;-1.528;2024-03-22T10:05:31;6.60;;;5.38;;
64061;SDS011;50308;47.438;-1.528;2024-03-22T10:07:57;6.97;;;5.82;;
64061;SDS011;50308;47.438;-1.528;2024-03-22T10:10:23;7.43;;;5.60;;
64061;SDS011;50308;47.438;-1.528;2024-03-22T10:12:48;7.72;;;5.57;;
64061;SDS011;50308;47.438;-1.528;2024-03-22T10:15:14;10.85;;;6.60;;
64061;SDS011;50308;47.438;-1.528;2024-03-22T10:17:40;8.30;;;6.47;;
64061;SDS011;50308;47.438;-1.528;2024-03-22T10:20:06;8.43;;;6.57;;
64061;SDS011;50308;47.438;-1.528;2024-03-22T10:22:42;12.80;;;6.90;;
64061;SDS011;50308;47.438;-1.528;2024-03-22T10:25:08;8.50;;;7.18;;
64061;SDS011;50308;47.438;-1.528;2024-03-22T10:27:34;9.88;;;7.65;;
64061;SDS011;50308;47.438;-1.528;2024-03-22T10:30:03;8.85;;;7.07;;
64061;SDS011;50308;47.438;-1.528;2024-03-22T10:32:33;10.38;;;7.68;;
64061;SDS011;50308;47.438;-1.528;2024-03-22T10:34:59;8.52;;;6.80;;
64061;SDS011;50308;47.438;-1.528;2024-03-22T10:37:30;8.73;;;7.10;;
64061;SDS011;50308;47.438;-1.528;2024-03-22T10:39:56;10.23;;;7.80;;
64061;SDS011;50308;47.438;-1.528;2024-03-22T10:42:25;9.10;;;7.47;;
64061;SDS011;50308;47.438;-1.528;2024-03-22T10:44:51;8.52;;;7.38;;
64061;SDS011;50308;47.438;-1.528;2024-03-22T10:47:16;10.05;;;7.32;;
64061;SDS011;50308;47.438;-1.528;2024-03-22T10:49:46;10.70;;;7.85;;
64061;SDS011;50308;47.438;-1.528;2024-03-22T10:52:16;10.20;;;7.35;;
64061;SDS011;50308;47.438;-1.528;2024-03-22T10:54:43;11.00;;;8.32;;
64061;SDS011;50308;47.438;-1.528;2024-03-22T10:57:12;13.52;;;9.20;;
64061;SDS011;50308;47.438;-1.528;2024-03-22T10:59:41;13.07;;;9.57;;
64061;SDS011;50308;47.438;-1.528;2024-03-22T11:02:09;12.93;;;9.10;;
64061;SDS011;50308;47.438;-1.528;2024-03-22T11:04:36;14.63;;;10.23;;
64061;SDS011;50308;47.438;-1.528;2024-03-22T11:07:02;13.60;;;10.32;;
64061;SDS011;50308;47.438;-1.528;2024-03-22T11:09:28;12.75;;;10.05;;
64061;SDS011;50308;47.438;-1.528;2024-03-22T11:11:55;11.93;;;9.23;;
64061;SDS011;50308;47.438;-1.528;2024-03-22T11:14:24;13.97;;;10.70;;
64061;SDS011;50308;47.438;-1.528;2024-03-22T11:16:50;14.15;;;10.73;;
64061;SDS011;50308;47.438;-1.528;2024-03-22T11:19:16;12.77;;;9.18;;
64061;SDS011;50308;47.438;-1.528;2024-03-22T11:21:42;14.50;;;10.07;;
64061;SDS011;50308;47.438;-1.528;2024-03-22T11:24:08;14.40;;;10.25;;
64061;SDS011;50308;47.438;-1.528;2024-03-22T11:26:35;11.43;;;9.57;;
64061;SDS011;50308;47.438;-1.528;2024-03-22T11:29:00;13.65;;;9.85;;
64061;SDS011;50308;47.438;-1.528;2024-03-22T11:31:26;13.32;;;9.32;;
64061;SDS011;50308;47.438;-1.528;2024-03-22T11:33:53;11.70;;;9.07;;
64061;SDS011;50308;47.438;-1.528;2024-03-22T11:36:19;13.15;;;8.85;;
64061;SDS011;50308;47.438;-1.528;2024-03-22T11:38:45;12.05;;;9.15;;
64061;SDS011;50308;47.438;-1.528;2024-03-22T11:41:13;14.23;;;9.80;;
64061;SDS011;50308;47.438;-1.528;2024-03-22T11:43:42;11.85;;;9.95;;
64061;SDS011;50308;47.438;-1.528;2024-03-22T11:46:08;13.65;;;9.52;;
64061;SDS011;50308;47.438;-1.528;2024-03-22T11:48:38;12.43;;;8.68;;
64061;SDS011;50308;47.438;-1.528;2024-03-22T11:51:05;12.73;;;9.27;;
64061;SDS011;50308;47.438;-1.528;2024-03-22T11:53:31;12.50;;;9.10;;
64061;SDS011;50308;47.438;-1.528;2024-03-22T11:55:57;18.92;;;9.85;;
64061;SDS011;50308;47.438;-1.528;2024-03-22T11:58:26;14.35;;;9.85;;
64061;SDS011;50308;47.438;-1.528;2024-03-22T12:00:51;11.73;;;8.95;;
64061;SDS011;50308;47.438;-1.528;2024-03-22T12:03:17;13.55;;;10.05;;
64061;SDS011;50308;47.438;-1.528;2024-03-22T12:05:43;14.57;;;9.80;;
64061;SDS011;50308;47.438;-1.528;2024-03-22T12:08:10;14.48;;;9.98;;
64061;SDS011;50308;47.438;-1.528;2024-03-22T12:10:35;12.38;;;9.77;;
64061;SDS011;50308;47.438;-1.528;2024-03-22T12:13:01;14.10;;;10.35;;
64061;SDS011;50308;47.438;-1.528;2024-03-22T12:15:27;13.60;;;9.38;;
64061;SDS011;50308;47.438;-1.528;2024-03-22T12:17:53;12.88;;;9.98;;
64061;SDS011;50308;47.438;-1.528;2024-03-22T12:20:18;13.75;;;10.27;;
64061;SDS011;50308;47.438;-1.528;2024-03-22T12:22:44;14.77;;;10.50;;
64061;SDS011;50308;47.438;-1.528;2024-03-22T12:25:10;12.02;;;9.52;;
64061;SDS011;50308;47.438;-1.528;2024-03-22T12:27:36;13.73;;;10.30;;
64061;SDS011;50308;47.438;-1.528;2024-03-22T12:30:02;13.43;;;9.77;;
64061;SDS011;50308;47.438;-1.528;2024-03-22T12:32:28;13.02;;;9.50;;
64061;SDS011;50308;47.438;-1.528;2024-03-22T12:34:54;13.95;;;10.75;;
64061;SDS011;50308;47.438;-1.528;2024-03-22T12:37:20;12.43;;;9.90;;
64061;SDS011;50308;47.438;-1.528;2024-03-22T12:39:45;11.98;;;10.25;;
64061;SDS011;50308;47.438;-1.528;2024-03-22T12:42:12;11.25;;;9.60;;
64061;SDS011;50308;47.438;-1.528;2024-03-22T12:44:38;13.48;;;9.88;;
64061;SDS011;50308;47.438;-1.528;2024-03-22T12:47:03;12.13;;;9.57;;
64061;SDS011;50308;47.438;-1.528;2024-03-22T12:49:29;13.05;;;10.18;;
64061;SDS011;50308;47.438;-1.528;2024-03-22T12:51:55;11.85;;;9.48;;
64061;SDS011;50308;47.438;-1.528;2024-03-22T12:54:22;13.35;;;9.43;;
64061;SDS011;50308;47.438;-1.528;2024-03-22T12:56:47;11.57;;;9.45;;
64061;SDS011;50308;47.438;-1.528;2024-03-22T12:59:13;14.98;;;9.68;;
64061;SDS011;50308;47.438;-1.528;2024-03-22T13:01:39;13.15;;;10.30;;
64061;SDS011;50308;47.438;-1.528;2024-03-22T13:04:04;12.93;;;9.20;;
64061;SDS011;50308;47.438;-1.528;2024-03-22T13:06:30;12.55;;;9.75;;
64061;SDS011;50308;47.438;-1.528;2024-03-22T13:08:55;10.95;;;9.30;;
64061;SDS011;50308;47.438;-1.528;2024-03-22T13:11:22;12.38;;;10.05;;
64061;SDS011;50308;47.438;-1.528;2024-03-22T13:13:47;11.80;;;9.43;;
64061;SDS011;50308;47.438;-1.528;2024-03-22T13:16:13;11.30;;;8.57;;
64061;SDS011;50308;47.438;-1.528;2024-03-22T13:18:40;11.95;;;9.38;;
64061;SDS011;50308;47.438;-1.528;2024-03-22T13:21:06;10.63;;;8.48;;
64061;SDS011;50308;47.438;-1.528;2024-03-22T13:23:32;10.07;;;8.27;;
64061;SDS011;50308;47.438;-1.528;2024-03-22T13:26:02;11.02;;;9.27;;
64061;SDS011;50308;47.438;-1.528;2024-03-22T13:28:29;11.07;;;8.77;;
64061;SDS011;50308;47.438;-1.528;2024-03-22T13:31:04;12.55;;;9.18;;
64061;SDS011;50308;47.438;-1.528;2024-03-22T13:33:33;11.85;;;9.00;;
64061;SDS011;50308;47.438;-1.528;2024-03-22T13:36:00;11.73;;;9.00;;
64061;SDS011;50308;47.438;-1.528;2024-03-22T13:38:26;10.85;;;8.27;;
64061;SDS011;50308;47.438;-1.528;2024-03-22T13:40:55;10.02;;;7.50;;
64061;SDS011;50308;47.438;-1.528;2024-03-22T13:43:22;11.33;;;8.23;;
64061;SDS011;50308;47.438;-1.528;2024-03-22T13:45:50;10.70;;;7.88;;
64061;SDS011;50308;47.438;-1.528;2024-03-22T13:48:20;11.07;;;8.65;;
64061;SDS011;50308;47.438;-1.528;2024-03-22T13:50:53;10.73;;;8.38;;
64061;SDS011;50308;47.438;-1.528;2024-03-22T13:53:19;10.27;;;7.88;;
64061;SDS011;50308;47.438;-1.528;2024-03-22T13:55:47;10.70;;;7.95;;
64061;SDS011;50308;47.438;-1.528;2024-03-22T13:58:13;10.95;;;7.78;;
64061;SDS011;50308;47.438;-1.528;2024-03-22T14:00:39;9.98;;;7.82;;
64061;SDS011;50308;47.438;-1.528;2024-03-22T14:03:05;10.13;;;8.38;;
64061;SDS011;50308;47.438;-1.528;2024-03-22T14:05:31;10.57;;;8.30;;
64061;SDS011;50308;47.438;-1.528;2024-03-22T14:07:57;13.18;;;8.15;;
64061;SDS011;50308;47.438;-1.528;2024-03-22T14:10:23;8.95;;;7.70;;
64061;SDS011;50308;47.438;-1.528;2024-03-22T14:12:51;11.63;;;8.82;;
64061;SDS011;50308;47.438;-1.528;2024-03-22T14:15:17;11.68;;;8.57;;
64061;SDS011;50308;47.438;-1.528;2024-03-22T14:17:43;10.80;;;8.57;;
64061;SDS011;50308;47.438;-1.528;2024-03-22T14:20:09;9.35;;;7.75;;